Findlay, OH

10:01 PM EDT on July 31, 2014 (GMT -0400)
Toledo Express (KTOL) Elev 692 ft | 41.59 °N, 83.81 °W | Change Station

Current weather conditions updated 1 hour ago

Clear
Clear
67 °F
Feels Like 67 °F
N
0
Wind Variable Wind from North

Tomorrow is forecast to be nearly the same temperature as today. Showers and thunderstorms late.

Today
High -- | Low -- °F
--% Chance of Precip.
Yesterday
High -- | Low -- °F
Precip. -- in
6:29 AM 8:51 PM
Waxing Crescent, 22% visible
Pressure 30.04 in
Visibility 10.0 miles
Clouds Clear
Dew Point 62 °F
Humidity 84%
Rainfall 0.00 in
Snow Depth Not available.
UV 0 out of 12
Pollen 7.00 out of 12
Air Quality Not available.
Flu Activity Not available.
METAR KTOL 010052Z 00000KT 10SM CLR 19/17 A3004 RMK AO2 SLP172 T01940167

More Conditions Fewer Conditions

Pressure 30.04 in
Visibility 10.0 miles
Clouds Clear
Dew Point 62 °F
Humidity 84%
Rainfall 0.00 in
Snow Depth Not available.
UV 0 out of 12
Pollen 7.00 out of 12
Air Quality Not available.
Flu Activity Not available.
METAR KTOL 010052Z 00000KT 10SM CLR 19/17 A3004 RMK AO2 SLP172 T01940167

More Conditions Fewer Conditions

10-Day Weather Forecast

Almanac

Astronomy

Jul. 31, 2014 Rise Set
Actual Time 6:29 AM EDT 8:51 PM EDT
Civil Twilight 5:58 AM EDT 9:22 PM EDT
Nautical Twilight 5:20 AM EDT 10:01 PM EDT
Astronomical Twilight 4:37 AM EDT 10:43 PM EDT
Moon 10:58 AM EDT (7/31) 11:01 PM EDT (7/31)
Length of Visible Light 15h 24m
Length of Day
14h 22m
Tomorrow will be 2m 3s shorter.
Waxing Crescent, 22% of the Moon is Illuminated
Today
Waxing Crescent
Aug 3
First Quarter
Aug 10
Full
Aug 17
Last Quarter
Aug 25
New

Today's Extremes

State Highs State Lows

Community

WunderPhotos

Upload Photos

1,739,500 photos uploaded!

Nearby

Snow Depth

Station Depth Elevation
No new snow has been reported.

Earthquake Activity

City Distance Mag. Time & Date
No recent earthquake activity has been reported nearby.
Minimum magnitude displayed is 2.5.

Coastal Water Temperatures

Place Temperature
No Stations Reporting

Nearby Weather Stations

Station Location Temp. Heat Index Dew Point Humidity Wind Precip. Elev Updated Type
Findlay, Findlay, OH 72.9 °F 76 °F 61 °F 66% SSW  at  0.0 mph 0.00 in / hr 814 ft 9:48 PM EDT Normal
Arcadia Ohio Williesweather, ARCADIA, OH 67.6 °F - 60 °F 77% NW  at  0.0 mph 0.00 in / hr 820 ft 10:01 PM EDT Rapid Fire
ARLINGTON, OH 64.1 °F - 60 °F 85% SSW  at  0.0 mph 0.00 in / hr 850 ft 10:01 PM EDT Rapid Fire
Ada, Ada, OH 65.0 °F - 62 °F 89% SSW  at  0.0 mph 0.00 in / hr 912 ft 10:01 PM EDT Rapid Fire
near downtown Bowling Green, OH, Bowling Green, OH 72.5 °F 75 °F 61 °F 67% WSW  at  0.0 mph 0.00 in / hr 709 ft 9:59 PM EDT Normal
Weston, Weston, OH 70.0 °F - 60 °F 70% South  at  0.7 mph 0.00 in / hr 682 ft 10:01 PM EDT Rapid Fire
West Bowling Green, Bowling Green, OH 71.2 °F 73 °F 62 °F 74% South  at  0.0 mph 0.00 in / hr 696 ft 10:01 PM EDT Rapid Fire

Show More Stations Show Fewer Stations